< < Back
Terminal Aerodrome Forecast


Current Version              Previous Versions:   1  2  3  4  5  6  7  8  9  

Terminal Aerodrome Forecast

389
FTUS44 KHUN 262320
TAFHSV
TAF
KHSV 262320Z 2700/2724 15003KT P6SM FEW060
     FM271400 17005KT P6SM SCT060 SCT250
     FM271900 20010KT P6SM FEW070 BKN150=

Latest METAR

339
SAUS80 KWBC 271200
MTRHSV
METAR KHSV 271153Z 11004KT 10SM BKN250 21/17 A3006 RMK AO2 SLP172
T02110167 10222 20200 53015


USA.gov is the U.S. government's official web portal to all federal, state and local government web resources and services.